LiveATC.Net - Listen to live air traffic control over the Internet!

Find LiveATC Audio Streams


Airport/ARTCC Code

Frequency
(e.g., 124.400, 128.75)
Site-wide search

Browse LiveATC Feeds
LiveATC Coverage Map
Top 50 LiveATC Feeds
Bad Weather Areas

LiveATC FAQ
Offer a LiveATC Feed
Contact LiveATC.net
Press Inquiries

LiveATC on iPhone
LiveATC on Android

Windows Phone
Windows 8/10

LiveATC Mobile
(Mobile browser)

ATC Audio Archives
Interesting Recordings

LiveATC Forums

Home Page
About LiveATC.net
Make a Donation
LiveATC Store

Terms of Use
Privacy Policy

Canadian Air Freqs

AIRMETs/SIGMETs

FAA Airport Status
Nat'l Airspace Status
Arrival Demand Charts


Server Software By:
Icecast.org
Liquidsoap

Select an area of interest:
U.S. Feeds: Class B Airports | Class C Airports | Class D/Other Airports | ARTCC (Centers)
International Feeds: Canada | Europe | Oceania | Asia | South America | North/Central America | Africa
Misc Feeds: HF Feeds
Search by ICAO/IATA airport code:   (e.g., kbos, kjfk, lax, eham, etc.)


Currently Available Live Feeds: 1431
Status Updated: Mon May 02 2016 05:57:01 UTC


NOTICE

Unauthorized use prohibited. See LiveATC.net Terms of Service

Asia Airport Feeds

 

LCPH Gnd/Twr/App/Radar (Archives)
Paphos, Cyprus

Feed Status: UP

Click on your favorite media player to listen:
Listen with WinAmp to LCPH Gnd/Twr/App/Radar  Listen with iTunes to LCPH Gnd/Twr/App/Radar  Click here to listen if using Real Player  Click here to listen if using Windows Media Player

Or simply listen in your browser:

Listen right in your browser(in browser, requires Flash)

LCPH 020500Z 30003KT 220V340 CAVOK 22/15 Q1010

LCPH Flight Activity (Flightaware)

Listeners: 0 out of 651 total

Nicosia Radar: 124.200
Nicosia West Radar: 125.500
Pafos Tower: 119.900
Paphos Gnd/Twr/App: 119.900

LTAC Tower/Approach (Archives)
Ankara, Turkey

Feed Status: UP

Click on your favorite media player to listen:
Listen with WinAmp to LTAC Tower/Approach  Listen with iTunes to LTAC Tower/Approach  Click here to listen if using Real Player  Click here to listen if using Windows Media Player

Or simply listen in your browser:

Listen right in your browser(in browser, requires Flash)

LTAC 020520Z 02005KT 360V060 CAVOK 12/04 Q1017 NOSIG

LTAC Flight Activity (Flightaware)

Listeners: 1 out of 651 total

Ankara Approach: 119.600
Ankara Approach (Center): 131.050
Ankara Approach (Upper): 132.150
Ankara Approach (West): 120.600
Ankara Approach (West): 128.800
Ankara Approach (West/Upper): 128.450
Esenboga Tower: 118.100

LTAF Tower/Approach (Archives)
Adana, Turkey

Feed Status: UP

Click on your favorite media player to listen:
Listen with WinAmp to LTAF Tower/Approach  Listen with iTunes to LTAF Tower/Approach  Click here to listen if using Real Player  Click here to listen if using Windows Media Player

Or simply listen in your browser:

Listen right in your browser(in browser, requires Flash)

LTAF 020520Z 00000KT 9999 SCT035 BKN100 22/18 Q1011 NOSIG

LTAF Flight Activity (Flightaware)

Listeners: 0 out of 651 total

Adana Approach: 118.300
Adana Tower: 131.100
Adana Tower: 121.100

HF CWP 8903 (Archives)
Manila, Philippines

Feed Status: UP

Click on your favorite media player to listen:
Listen with WinAmp to HF CWP 8903  Listen with iTunes to HF CWP 8903  Click here to listen if using Real Player  Click here to listen if using Windows Media Player

Or simply listen in your browser:

Listen right in your browser(in browser, requires Flash)


Listeners: 0 out of 651 total

HF CWP: 8.903

HF SEA-2 8942 (Archives)
Manila, Philippines

Feed Status: UP

Click on your favorite media player to listen:
Listen with WinAmp to HF SEA-2 8942  Listen with iTunes to HF SEA-2 8942  Click here to listen if using Real Player  Click here to listen if using Windows Media Player

Or simply listen in your browser:

Listen right in your browser(in browser, requires Flash)


Listeners: 1 out of 651 total

HF SEA-2: 8.942

OKBK Gnd/Twr/App/Radar (Archives)
Kuwait City, Kuwait

Feed Status: UP

Click on your favorite media player to listen:
Listen with WinAmp to OKBK Gnd/Twr/App/Radar  Listen with iTunes to OKBK Gnd/Twr/App/Radar  Click here to listen if using Real Player  Click here to listen if using Windows Media Player

Or simply listen in your browser:

Listen right in your browser(in browser, requires Flash)

OKBK 020500Z 21009KT CAVOK 32/05 Q1010 NOSIG


Listeners: 0 out of 651 total

Kuwait Approach: 121.300
Kuwait Approach: 124.800
Kuwait Ground: 121.700
Kuwait Radar (Center): 125.300
Kuwait Tower: 118.300

OMDB Arrival (Archives)
Dubai, United Arab Emirates

Feed Status: UP

Click on your favorite media player to listen:
Listen with WinAmp to OMDB Arrival  Listen with iTunes to OMDB Arrival  Click here to listen if using Real Player  Click here to listen if using Windows Media Player

Or simply listen in your browser:

Listen right in your browser(in browser, requires Flash)

OMDB 020500Z 21009KT 150V250 CAVOK 27/18 Q1010 NOSIG


Listeners: 0 out of 651 total

Dubai Arrival: 124.900

OMDB Clearance Delivery (Archives)
Dubai, United Arab Emirates

Feed Status: UP

Click on your favorite media player to listen:
Listen with WinAmp to OMDB Clearance Delivery  Listen with iTunes to OMDB Clearance Delivery  Click here to listen if using Real Player  Click here to listen if using Windows Media Player

Or simply listen in your browser:

Listen right in your browser(in browser, requires Flash)

OMDB 020500Z 21009KT 150V250 CAVOK 27/18 Q1010 NOSIG


Listeners: 0 out of 651 total

Dubai Clearance Delivery: 120.350

OMDB Ground (Primary) (Archives)
Dubai, United Arab Emirates

Feed Status: UP

Click on your favorite media player to listen:
Listen with WinAmp to OMDB Ground (Primary)  Listen with iTunes to OMDB Ground (Primary)  Click here to listen if using Real Player  Click here to listen if using Windows Media Player

Or simply listen in your browser:

Listen right in your browser(in browser, requires Flash)

OMDB 020500Z 21009KT 150V250 CAVOK 27/18 Q1010 NOSIG


Listeners: 0 out of 651 total

Dubai Ground (Primary): 118.850

OMDB Ground (Secondary) (Archives)
Dubai, United Arab Emirates

Feed Status: UP

Click on your favorite media player to listen:
Listen with WinAmp to OMDB Ground (Secondary)  Listen with iTunes to OMDB Ground (Secondary)  Click here to listen if using Real Player  Click here to listen if using Windows Media Player

Or simply listen in your browser:

Listen right in your browser(in browser, requires Flash)

OMDB 020500Z 21009KT 150V250 CAVOK 27/18 Q1010 NOSIG


Listeners: 0 out of 651 total

Dubai Ground (Secondary): 118.350

OMDB North Dep (Archives)
Dubai, United Arab Emirates

Feed Status: UP

Click on your favorite media player to listen:
Listen with WinAmp to OMDB North Dep  Listen with iTunes to OMDB North Dep  Click here to listen if using Real Player  Click here to listen if using Windows Media Player

Or simply listen in your browser:

Listen right in your browser(in browser, requires Flash)

OMDB 020500Z 21009KT 150V250 CAVOK 27/18 Q1010 NOSIG


Listeners: 0 out of 651 total

Dubai Departure (North): 124.450

OMDB Tower #1 (Archives)
Dubai, United Arab Emirates

Feed Status: UP

Click on your favorite media player to listen:
Listen with WinAmp to OMDB Tower #1  Listen with iTunes to OMDB Tower #1  Click here to listen if using Real Player  Click here to listen if using Windows Media Player

Or simply listen in your browser:

Listen right in your browser(in browser, requires Flash)

OMDB 020500Z 21009KT 150V250 CAVOK 27/18 Q1010 NOSIG


Listeners: 0 out of 651 total

Dubai Tower: 119.550

OMDB Tower #2 (Archives)
Dubai, United Arab Emirates

Feed Status: UP

Click on your favorite media player to listen:
Listen with WinAmp to OMDB Tower #2  Listen with iTunes to OMDB Tower #2  Click here to listen if using Real Player  Click here to listen if using Windows Media Player

Or simply listen in your browser:

Listen right in your browser(in browser, requires Flash)

OMDB 020500Z 21009KT 150V250 CAVOK 27/18 Q1010 NOSIG


Listeners: 0 out of 651 total

Dubai Tower: 118.750

OMDB Tower (both) (Archives)
Dubai, United Arab Emirates

Feed Status: UP

Click on your favorite media player to listen:
Listen with WinAmp to OMDB Tower (both)  Listen with iTunes to OMDB Tower (both)  Click here to listen if using Real Player  Click here to listen if using Windows Media Player

Or simply listen in your browser:

Listen right in your browser(in browser, requires Flash)

OMDB 020500Z 21009KT 150V250 CAVOK 27/18 Q1010 NOSIG


Listeners: 0 out of 651 total

Dubai Tower: 118.750
Dubai Tower: 119.550

OMSJ Tower (Archives)
Dubai, United Arab Emirates

Feed Status: UP

Click on your favorite media player to listen:
Listen with WinAmp to OMSJ Tower  Listen with iTunes to OMSJ Tower  Click here to listen if using Real Player  Click here to listen if using Windows Media Player

Or simply listen in your browser:

Listen right in your browser(in browser, requires Flash)

OMSJ 020500Z 21010KT CAVOK 28/18 Q1010


Listeners: 0 out of 651 total

Sharjah Tower: 118.600

OPKC Gnd/Twr/Radar (Archives)
Karachi, Pakistan

Feed Status: UP

Click on your favorite media player to listen:
Listen with WinAmp to OPKC Gnd/Twr/Radar  Listen with iTunes to OPKC Gnd/Twr/Radar  Click here to listen if using Real Player  Click here to listen if using Windows Media Player

Or simply listen in your browser:

Listen right in your browser(in browser, requires Flash)

OPKC 020525Z 23008KT 6000 NSC 35/16 Q1007 NOSIG


Listeners: 0 out of 651 total

Karachi Ground: 121.600
Karachi Radar: 125.500
Karachi Tower: 118.300

OPLA ATIS
Lahore, Pakistan

Feed Status: DOWN
Offline since: 2016-04-21 15:37:04 UTC
OPLA 020525Z 20005KT 6000 HZ NSC 39/12 Q1004

Lahore ATIS: 126.300

OPLA/OPLH Gnd/Twr/App
Lahore, Pakistan

Feed Status: DOWN
Offline since: 2016-04-21 15:37:04 UTC
OPLA 020525Z 20005KT 6000 HZ NSC 39/12 Q1004

Lahore Approach: 121.300
Lahore Approach: 125.300
Lahore Control: 127.500
Lahore Ground: 118.400
Lahore Tower: 118.100
Lahore Tower: 121.800
Walton (OPLH) Tower: 119.400

OPLA/OPLH Gnd/Twr/App
Lahore, Pakistan

Feed Status: DOWN
Offline since: 2016-04-21 15:37:04 UTC
OPLA 020525Z 20005KT 6000 HZ NSC 39/12 Q1004

Lahore Approach: 121.300
Lahore Approach: 125.300
Lahore Control: 127.500
Lahore Ground: 118.400
Lahore Tower: 118.100
Lahore Tower: 121.800
Walton (OPLH) Tower: 119.400

OPMT Twr/App
Multan, Pakistan

Feed Status: DOWN
Offline since: 2016-04-02 14:59:03 UTC
OPMT 020455Z 31006KTS 2500 HZ FEW040 SCT120 35/15 Q1002 TEMPO 3000

Multan Approach/Departure: 123.150
Multan Tower: 119.100

OPRN Approach (Archives)
Islamabad, Pakistan

Feed Status: UP

Click on your favorite media player to listen:
Listen with WinAmp to OPRN Approach  Listen with iTunes to OPRN Approach  Click here to listen if using Real Player  Click here to listen if using Windows Media Player

Or simply listen in your browser:

Listen right in your browser(in browser, requires Flash)

OPRN 020530Z 31004KT 6000 FEW040 35/12 Q1006.5/29.72


Listeners: 0 out of 651 total

Islamabad Approach: 124.900

OPRN ATIS (Archives)
Islamabad, Pakistan

Feed Status: UP

Click on your favorite media player to listen:
Listen with WinAmp to OPRN ATIS  Listen with iTunes to OPRN ATIS  Click here to listen if using Real Player  Click here to listen if using Windows Media Player

Or simply listen in your browser:

Listen right in your browser(in browser, requires Flash)

OPRN 020530Z 31004KT 6000 FEW040 35/12 Q1006.5/29.72


Listeners: 0 out of 651 total

Islamabad ATIS: 129.600

OPRN Tower (Archives)
Islamabad, Pakistan

Feed Status: UP

Click on your favorite media player to listen:
Listen with WinAmp to OPRN Tower  Listen with iTunes to OPRN Tower  Click here to listen if using Real Player  Click here to listen if using Windows Media Player

Or simply listen in your browser:

Listen right in your browser(in browser, requires Flash)

OPRN 020530Z 31004KT 6000 FEW040 35/12 Q1006.5/29.72


Listeners: 0 out of 651 total

Islamabad Tower: 123.700

RCKH Ground
Kaohsiung, Taiwan

Feed Status: DOWN
Offline since: 2015-05-24 11:58:03 UTC
RCKH 020521Z 18006G16KT 120V240 9999 FEW015 BKN025 31/25 Q1011 NOSIG RMK 21011KT/R09 A2988

Kaohsiung Ground: 121.900

RCKH Tower
Kaohsiung, Taiwan

Feed Status: DOWN
Offline since: 2015-06-03 18:36:03 UTC
RCKH 020521Z 18006G16KT 120V240 9999 FEW015 BKN025 31/25 Q1011 NOSIG RMK 21011KT/R09 A2988

Kaohsiung Tower: 118.700

RCSS Approach
Taipei, Taiwan

Feed Status: DOWN
Offline since: 2016-04-20 19:23:03 UTC
RCSS 020500Z 25003KT 170V300 9999 FEW025 BKN100 32/20 Q1010 NOSIG RMK A2984

Taipei Approach: 119.700

RCSS Ground/Delivery (Archives)
Taipei, Taiwan

Feed Status: UP

Click on your favorite media player to listen:
Listen with WinAmp to RCSS Ground/Delivery  Listen with iTunes to RCSS Ground/Delivery  Click here to listen if using Real Player  Click here to listen if using Windows Media Player

Or simply listen in your browser:

Listen right in your browser(in browser, requires Flash)

RCSS 020500Z 25003KT 170V300 9999 FEW025 BKN100 32/20 Q1010 NOSIG RMK A2984

RCSS Flight Activity (Flightaware)

Listeners: 0 out of 651 total

Songshan Clearance Delivery: 121.200
Songshan Ground: 121.900

RCSS Tower (Archives)
Taipei, Taiwan

Feed Status: UP

Click on your favorite media player to listen:
Listen with WinAmp to RCSS Tower  Listen with iTunes to RCSS Tower  Click here to listen if using Real Player  Click here to listen if using Windows Media Player

Or simply listen in your browser:

Listen right in your browser(in browser, requires Flash)

RCSS 020500Z 25003KT 170V300 9999 FEW025 BKN100 32/20 Q1010 NOSIG RMK A2984

RCSS Flight Activity (Flightaware)

Listeners: 3 out of 651 total

Songshan Tower: 118.100

RCTP Tower
Taipei, Taiwan

Feed Status: DOWN
Offline since: 2016-05-01 20:46:04 UTC
RCTP 020500Z 29010KT 260V320 9999 FEW035 BKN100 BKN180 30/22 Q1011 NOSIG RMK A2986

Taipei Tower: 118.700

RJSF RDO (Archives)
Sukagawa, Japan

Feed Status: UP

Click on your favorite media player to listen:
Listen with WinAmp to RJSF RDO  Listen with iTunes to RJSF RDO  Click here to listen if using Real Player  Click here to listen if using Windows Media Player

Or simply listen in your browser:

Listen right in your browser(in browser, requires Flash)

RJSF 020500Z 25005KT 170V290 9999 SCT020 BKN090 16/10 Q1020

RJSF Flight Activity (Flightaware)

Listeners: 2 out of 651 total

Fukushima Radio: 118.050

RJTT App/Dep (Archives)
Tokyo, Japan

Feed Status: UP

Click on your favorite media player to listen:
Listen with WinAmp to RJTT App/Dep  Listen with iTunes to RJTT App/Dep  Click here to listen if using Real Player  Click here to listen if using Windows Media Player

Or simply listen in your browser:

Listen right in your browser(in browser, requires Flash)

RJTT 020500Z 07007KT 9999 FEW015 BKN045 BKN/// 19/14 Q1020 NOSIG

RJTT Flight Activity (Flightaware)

Listeners: 15 out of 651 total

Tokyo Approach: 119.100
Tokyo Approach: 119.400
Tokyo Departure: 120.800
Tokyo Departure: 126.000

RJTT Tokyo Control (Archives)
Tokyo, Japan

Feed Status: UP

Click on your favorite media player to listen:
Listen with WinAmp to RJTT Tokyo Control  Listen with iTunes to RJTT Tokyo Control  Click here to listen if using Real Player  Click here to listen if using Windows Media Player

Or simply listen in your browser:

Listen right in your browser(in browser, requires Flash)

RJTT 020500Z 07007KT 9999 FEW015 BKN045 BKN/// 19/14 Q1020 NOSIG

RJTT Flight Activity (Flightaware)

Listeners: 18 out of 651 total

Tokyo Control: 133.700
Tokyo Control: 125.900
Tokyo Control: 120.500

RJTT Twr/TCA (Archives)
Tokyo, Japan

Feed Status: UP

Click on your favorite media player to listen:
Listen with WinAmp to RJTT Twr/TCA  Listen with iTunes to RJTT Twr/TCA  Click here to listen if using Real Player  Click here to listen if using Windows Media Player

Or simply listen in your browser:

Listen right in your browser(in browser, requires Flash)

RJTT 020500Z 07007KT 9999 FEW015 BKN045 BKN/// 19/14 Q1020 NOSIG

RJTT Flight Activity (Flightaware)

Listeners: 21 out of 651 total

Tokyo TCA: 124.750
Tokyo Tower: 124.350
Tokyo Tower: 118.725
Tokyo Tower: 118.575
Tokyo Tower: 118.100

RKSG Gnd/Twr/App (Archives)
Pyeongtaek, Korea, Republic of

Feed Status: UP

Click on your favorite media player to listen:
Listen with WinAmp to RKSG Gnd/Twr/App  Listen with iTunes to RKSG Gnd/Twr/App  Click here to listen if using Real Player  Click here to listen if using Windows Media Player

Or simply listen in your browser:

Listen right in your browser(in browser, requires Flash)

RKSG 020458Z AUTO 17006KT 10SM FEW130 28/13 A2984 RMK AO2 SLP107 T02780126 $

RKSG Flight Activity (Flightaware)

Listeners: 1 out of 651 total

Desiderio Final: 255.800
Desiderio GCA: 226.800
Desiderio GCA: 127.000
Desiderio Ground (Camp Humphreys A-511 AAF): 119.500
Desiderio Ground UHF: 229.700
Desiderio Ops: 294.100
Desiderio Tower (Camp Humphreys A-511 AAF): 122.500
Desiderio Tower UHF: 257.800

RKRR Incheon Control (Archives)
Incheon, Korea, Republic of

Feed Status: UP

Click on your favorite media player to listen:
Listen with WinAmp to RKRR Incheon Control  Listen with iTunes to RKRR Incheon Control  Click here to listen if using Real Player  Click here to listen if using Windows Media Player

Or simply listen in your browser:

Listen right in your browser(in browser, requires Flash)

RKSI 020500Z 15012KT 9999 FEW030 BKN120 26/11 Q1010 NOSIG

RKSI Flight Activity (Flightaware)

Listeners: 5 out of 651 total

Incheon Control North Sector (Primary): 128.700
Incheon Control North Sector (Secondary): 132.800
Incheon Control Northwest Sector (Primary): 126.175
Incheon Control Northwest Sector (Secondary): 123.725

RKSO Gnd/Twr/App (Archives)
Pyeongtaek, Korea, Republic of

Feed Status: UP

Click on your favorite media player to listen:
Listen with WinAmp to RKSO Gnd/Twr/App  Listen with iTunes to RKSO Gnd/Twr/App  Click here to listen if using Real Player  Click here to listen if using Windows Media Player

Or simply listen in your browser:

Listen right in your browser(in browser, requires Flash)

RKSO 020458Z 15004KT 7SM FEW030 FEW200 28/08 A2983 RMK AO2A SLP104 T02781333 $

RKSO Flight Activity (Flightaware)

Listeners: 4 out of 651 total

25 FS Ops: 229.000
36FS Ops: 371.300
Osan Air Base Approach/Departure: 127.900
Osan Air Base Approach/Departure: 133.650
Osan Air Base Ground: 132.450
Osan Air Base Tower: 122.100
Osan App/Dep UHF: 306.600
Osan App/Dep UHF: 234.300
Osan App/Dep UHF (possibly inactive): 306.300
Osan App/Dep UHF (possibly inactive): 363.100
Osan Ground UHF: 253.700
Osan SAR: 282.800
Osan SAR: 381.000
Osan SOF: 299.800
Osan Tower UHF: 308.800
Stallion Ops: 276.200

RPLL Approach/Departure (Archives)
Manila, Philippines

Feed Status: UP

Click on your favorite media player to listen:
Listen with WinAmp to RPLL Approach/Departure  Listen with iTunes to RPLL Approach/Departure  Click here to listen if using Real Player  Click here to listen if using Windows Media Player

Or simply listen in your browser:

Listen right in your browser(in browser, requires Flash)

RPLL 020500Z 14011KT 100V220 9999 FEW025 SCT300 36/22 Q1010 NOSIG RMKA2983

RPLL Flight Activity (Flightaware)

Listeners: 1 out of 651 total

Manila Approach/Departure: 121.100
Manila Approach/Departure: 119.700
Manila Center/Control: 128.300

RPLL Tower (Archives)
Manila, Philippines

Feed Status: UP

Click on your favorite media player to listen:
Listen with WinAmp to RPLL Tower  Listen with iTunes to RPLL Tower  Click here to listen if using Real Player  Click here to listen if using Windows Media Player

Or simply listen in your browser:

Listen right in your browser(in browser, requires Flash)

RPLL 020500Z 14011KT 100V220 9999 FEW025 SCT300 36/22 Q1010 NOSIG RMKA2983

RPLL Flight Activity (Flightaware)

Listeners: 0 out of 651 total

Manila Tower: 118.100

RPUN Tower (Archives)
Pili-Luzon Island, Philippines

Feed Status: UP

Click on your favorite media player to listen:
Listen with WinAmp to RPUN Tower  Listen with iTunes to RPUN Tower  Click here to listen if using Real Player  Click here to listen if using Windows Media Player

Or simply listen in your browser:

Listen right in your browser(in browser, requires Flash)

METAR NOT AVAILABLE

RPUN Flight Activity (Flightaware)

Listeners: 0 out of 651 total

Naga Tower: 122.100

HF CWP/SEA (Archives)
Pyeongtaek, Korea, Republic of

Feed Status: UP

Click on your favorite media player to listen:
Listen with WinAmp to HF CWP/SEA  Listen with iTunes to HF CWP/SEA  Click here to listen if using Real Player  Click here to listen if using Windows Media Player

Or simply listen in your browser:

Listen right in your browser(in browser, requires Flash)


Listeners: 0 out of 651 total

CWP 1 (Tokyo): 11.384
CWP 1/2 (Tokyo): 13.300
CWP-1/2 (San Francisco): 17.904
CWP-1/2 (Tokyo/Manila): 8.903
CWP-1/2 (Tokyo/San Francisco): 21.985
SEA-2 (Manila): 8.942

UAAA Approach
Almaty, Kazakhstan

Feed Status: DOWN
Offline since: 2016-04-30 04:41:03 UTC
UAAA 020500Z 18005MPS 9999 BKN050CB OVC100 19/12 Q1013 R88/2/0150 NOSIG

Almaty Approach: 124.800

UAAA Tower
Almaty, Kazakhstan

Feed Status: DOWN
Offline since: 2016-04-30 04:41:03 UTC
UAAA 020500Z 18005MPS 9999 BKN050CB OVC100 19/12 Q1013 R88/2/0150 NOSIG

Almaty Tower: 119.400

UAAA Tower/Approach
Almaty, Kazakhstan

Feed Status: DOWN
Offline since: 2016-04-30 04:42:04 UTC
UAAA 020500Z 18005MPS 9999 BKN050CB OVC100 19/12 Q1013 R88/2/0150 NOSIG

Almaty Approach: 124.800
Almaty Tower: 119.400

UIII Irkutsk Control (Archives)
Irkutsk, Russia

Feed Status: UP

Click on your favorite media player to listen:
Listen with WinAmp to UIII Irkutsk Control  Listen with iTunes to UIII Irkutsk Control  Click here to listen if using Real Player  Click here to listen if using Windows Media Player

Or simply listen in your browser:

Listen right in your browser(in browser, requires Flash)

UIII 020500Z 31004MPS 250V360 9999 FEW033 13/M02 Q1013 R30/CLRD60 NOSIG RMK QFE715/0953

UIII Flight Activity (Flightaware)

Listeners: 2 out of 651 total

Irkutsk Approach: 125.200
Irkutsk Control (Sector 1): 133.400
Irkutsk Control (Sector 2): 124.700
Irkutsk Control (Sector 3): 134.100
Irkutsk Ground: 121.700
Irkutsk Radar: 119.300
Irkutsk Tower: 118.100

Notes:
Maximum traffic from 1700-0900 UTC
Traffic from Europe to Asia (Lufthansa, Air France, KLM, AA, Air Canada, Cathay, Singapore), all Chinese, Korean routes to Europe.

UNKL Gnd/Twr/App (Archives)
Krasnoyarsk, Russia

Feed Status: UP

Click on your favorite media player to listen:
Listen with WinAmp to UNKL Gnd/Twr/App  Listen with iTunes to UNKL Gnd/Twr/App  Click here to listen if using Real Player  Click here to listen if using Windows Media Player

Or simply listen in your browser:

Listen right in your browser(in browser, requires Flash)

UNKL 020500Z 05001MPS 3900 -SHSN OVC013CB 01/M00 Q1011 R29/110065 NOSIG RMK QFE732

UNKL Flight Activity (Flightaware)

Listeners: 2 out of 651 total

Krasnoyarsk Approach: 127.700
Krasnoyarsk Ground: 121.700
Krasnoyarsk Krug: 122.000
Krasnoyarsk Tower: 118.300

UNNT Gnd/Twr/App/Radar/Misc (Archives)
Novosibirsk, Russia

Feed Status: UP

Click on your favorite media player to listen:
Listen with WinAmp to UNNT Gnd/Twr/App/Radar/Misc  Listen with iTunes to UNNT Gnd/Twr/App/Radar/Misc  Click here to listen if using Real Player  Click here to listen if using Windows Media Player

Or simply listen in your browser:

Listen right in your browser(in browser, requires Flash)

UNNT 020500Z 36006MPS 9000 -SHRA BKN012 OVC050CB 02/M01 Q1014 R07/090070 R16/090070 NOSIG RMK QFE751/1001

UNNT Flight Activity (Flightaware)

Listeners: 2 out of 651 total

ACC_Novosibirsk-Control (Military): 128.500
ACC_Novosibirsk-Control (Southeast): 126.100
ACC_Novosibirsk-Control (West): 127.000
GPA_Kristallik (airfield Severniy): 123.425
GPA_Palma (airfield Mochische): 118.000
GPA_Sernisiy (airfield Chkalovskiy): 124.750
GPA_Tomsk Information 1: 134.500
GPA_Vihrevoy (airfield Evsino): 126.000
MIL_Larek: 123.750
MIL_Maneken (airfield Chkalovskiy): 123.550
MIL_Novosibirsk-1 (airbase Tolmachevo: 124.000
MIL_Noyabr 31: 124.900
MIL_Polyana: 129.800
MIL_Stvorka: 130.750
MIL_Trimaran: 124.500
OVB_Apron: 118.800
OVB_Backup frequency: 127.100
OVB_Novosibirsk-Approach: 127.500
OVB_Novosibirsk-Ground: 121.700
OVB_Novosibirsk-Radar: 122.000
OVB_Novosibirsk-Tower: 118.500
OVB_Novosibirsk-Transit: 131.600
OVB_S7 Service: 131.925
OVB_Tech. room: 118.900
SP_Air-to-Air: 123.450
SP_Air-to-Air 2: 123.400
SP_China chat: 136.975
SP_Common backup frequency: 129.000
SP_Emergency: 121.500
SP_Emergency 2: 123.100
SP_Flyoff: 124.375
SURF_Boarding: 163.425
SURF_Cargo operating: 163.300
SURF_Ground surf: 163.375
SURF_O&D Service: 163.325
SURF_Registration: 163.625
SURF_Security: 163.750
SURF_Supplies: 163.450
SURF_Tower surf: 163.650
SURF_Vehicles: 163.200

UNOO Gnd/Tower/App (Archives)
Omsk, Russia

Feed Status: UP

Click on your favorite media player to listen:
Listen with WinAmp to UNOO Gnd/Tower/App  Listen with iTunes to UNOO Gnd/Tower/App  Click here to listen if using Real Player  Click here to listen if using Windows Media Player

Or simply listen in your browser:

Listen right in your browser(in browser, requires Flash)

UNOO 020500Z 02007MPS 9999 BKN033 05/M06 Q1021 R07/CLRD60 NOSIG RMK QFE757

UNOO Flight Activity (Flightaware)

Listeners: 0 out of 651 total

Aerodrom Kalachevo: 123.300
Aerodrom Marianovka: 123.000
Emergency/Guard: 121.500
Novosibirsk Control (Sector 7): 132.500
Novosibirsk Control (Sector 8): 132.900
Omsk Approach (FL060-FL265): 131.200
Omsk Apron: 118.800
Omsk Start/Radar: 119.000
Omsk Taxiing: 121.700
Omsk Transit: 131.700
UNOS/OMSK-Severny: 124.000

UNTT Gnd/Info/Radar/Control
Tomsk, Russia

Feed Status: DOWN
Offline since: 2016-04-30 03:11:03 UTC

Krasnoyarsk Control (Sector 2): 133.300
Novosibirsk Control (Sector 2): 126.100
Novosibirsk Control (Sector 3): 129.300
Novosibirsk Control (Sector 5): 132.300
Tomsk Ground: 118.800
Tomsk Informaciya: 126.000
Tomsk Krug (Radar): 127.300
Troynik (Golovino): 122.400

USCC Gnd/Twr/App/Control
Chelyabinsk, Russia

Feed Status: DOWN
Offline since: 2016-03-20 13:03:03 UTC
USCC 020500Z 07006MPS 9999 SCT040CB 05/M05 Q1025 R09/000060 NOSIG RMK QFE748

Air to Air: 123.450
Chelyabinsk Approach: 124.700
Chelyabinsk Control (sector 008*-105*): 133.200
Chelyabinsk Control (sector 105*-245*): 125.500
Chelyabinsk Control (sector 245*-008*) : 125.400
Chelyabinsk Start: 125.200
Chelyabinsk Transit: 131.600
Magnitogorsk Control : 132.200
USCG Shagol Approach: 128.500
USCG Shagol Start: 124.000
USCG Shagol Tower: 130.000
XSCW Kalachyovo (Chelavia): 122.750

USTR Gnd/Twr/App (Archives)
Tyumen, Russia

Feed Status: UP

Click on your favorite media player to listen:
Listen with WinAmp to USTR Gnd/Twr/App  Listen with iTunes to USTR Gnd/Twr/App  Click here to listen if using Real Player  Click here to listen if using Windows Media Player

Or simply listen in your browser:

Listen right in your browser(in browser, requires Flash)

USTR 020500Z 06005MPS 010V180 CAVOK 04/M10 Q1029 R12/CLRD65 NOSIG RMK QFE763/1017

USTR Flight Activity (Flightaware)

Listeners: 1 out of 651 total

Tyumen Approach: 126.100
Tyumen Control: 132.600
Tyumen Control: 133.600
Tyumen Info (Regional): 133.400
Tyumen Start: 118.200
Tyumen Transit: 131.800

VCBI Radar (Archives)
Colombo, Sri Lanka

Feed Status: UP

Click on your favorite media player to listen:
Listen with WinAmp to VCBI Radar  Listen with iTunes to VCBI Radar  Click here to listen if using Real Player  Click here to listen if using Windows Media Player

Or simply listen in your browser:

Listen right in your browser(in browser, requires Flash)

VCBI 020510Z 24007KT 210V280 9999 SCT016 FEW018TCU 32/24 Q1011 NOSIG RMK SW W

VCBI Flight Activity (Flightaware)

Listeners: 0 out of 651 total

Colombo Radar: 126.000

VHHH App/Dep/Radar (Archives)
Hong Kong, Hong Kong

Feed Status: UP

Click on your favorite media player to listen:
Listen with WinAmp to VHHH App/Dep/Radar  Listen with iTunes to VHHH App/Dep/Radar  Click here to listen if using Real Player  Click here to listen if using Windows Media Player

Or simply listen in your browser:

Listen right in your browser(in browser, requires Flash)

VHHH 020530Z 16011KT 110V220 9999 FEW008 SCT025 30/25 Q1010 NOSIG

VHHH Flight Activity (Flightaware)

Listeners: 3 out of 651 total

Hong Kong Approach: 119.100
Hong Kong Departure Control: 122.000
Hong Kong Departure Control: 123.800
Hong Kong Director: 119.500
Hong Kong Zone Control: 120.600


Note: Feed manually alternates between listed frequencies.

VHHH Approach 119.1
Hong Kong, Hong Kong

Feed Status: DOWN
Offline since: 2016-05-02 05:42:03 UTC
VHHH 020530Z 16011KT 110V220 9999 FEW008 SCT025 30/25 Q1010 NOSIG

Hong Kong Approach: 119.100

VHHH Director
Hong Kong, Hong Kong

Feed Status: DOWN
Offline since: 2016-05-02 05:42:03 UTC
VHHH 020530Z 16011KT 110V220 9999 FEW008 SCT025 30/25 Q1010 NOSIG

Hong Kong Director: 119.500

VHHH Ground
Hong Kong, Hong Kong

Feed Status: DOWN
Offline since: 2016-05-02 05:41:03 UTC
VHHH 020530Z 16011KT 110V220 9999 FEW008 SCT025 30/25 Q1010 NOSIG

Hong Kong Ground (North): 121.600
Hong Kong Ground (South): 122.550

VHHH Ground (North)
Hong Kong, Hong Kong

Feed Status: DOWN
Offline since: 2016-05-02 05:42:03 UTC
VHHH 020530Z 16011KT 110V220 9999 FEW008 SCT025 30/25 Q1010 NOSIG

Hong Kong Ground (North): 121.600

VHHH Ground (South)
Hong Kong, Hong Kong

Feed Status: DOWN
Offline since: 2016-05-02 05:42:03 UTC
VHHH 020530Z 16011KT 110V220 9999 FEW008 SCT025 30/25 Q1010 NOSIG

Hong Kong Ground (South): 122.550

VHHH Tower
Hong Kong, Hong Kong

Feed Status: DOWN
Offline since: 2016-05-02 05:41:03 UTC
VHHH 020530Z 16011KT 110V220 9999 FEW008 SCT025 30/25 Q1010 NOSIG

Hong Kong Tower (North): 118.200
Hong Kong Tower (South): 118.400

VHHH Tower (North)
Hong Kong, Hong Kong

Feed Status: DOWN
Offline since: 2016-05-02 05:42:03 UTC
VHHH 020530Z 16011KT 110V220 9999 FEW008 SCT025 30/25 Q1010 NOSIG

Hong Kong Tower (North): 118.200

VHHH Tower (South)
Hong Kong, Hong Kong

Feed Status: DOWN
Offline since: 2016-05-02 05:42:03 UTC
VHHH 020530Z 16011KT 110V220 9999 FEW008 SCT025 30/25 Q1010 NOSIG

Hong Kong Tower (South): 118.400

VHHH Zone
Hong Kong, Hong Kong

Feed Status: DOWN
Offline since: 2016-05-02 05:42:03 UTC
VHHH 020530Z 16011KT 110V220 9999 FEW008 SCT025 30/25 Q1010 NOSIG

Hong Kong Zone: 120.600

WBKK Gnd/Twr/App (Archives)
Kota Kinabalu, Malaysia

Feed Status: UP

Click on your favorite media player to listen:
Listen with WinAmp to WBKK Gnd/Twr/App  Listen with iTunes to WBKK Gnd/Twr/App  Click here to listen if using Real Player  Click here to listen if using Windows Media Player

Or simply listen in your browser:

Listen right in your browser(in browser, requires Flash)

WBKK 020500Z 31003KT 9999 FEW015 FEW016TCU BKN290 35/28 Q1009 NOSIG


Listeners: 1 out of 651 total

Kinabalu Director: 119.100
Kinabalu Ground: 121.600
Kinabalu Radar: 126.100
Kinabalu Radar: 132.450
Kinabalu Tower: 118.300

WIPP Gnd/Twr/App/Dep (Archives)
Palembang, Indonesia

Feed Status: UP

Click on your favorite media player to listen:
Listen with WinAmp to WIPP Gnd/Twr/App/Dep  Listen with iTunes to WIPP Gnd/Twr/App/Dep  Click here to listen if using Real Player  Click here to listen if using Windows Media Player

Or simply listen in your browser:

Listen right in your browser(in browser, requires Flash)

WIPP 020500Z 10005KT 050V140 9999 BKN012 FEW020CB 32/24 Q1010RMK CB TO E


Listeners: 0 out of 651 total

Palembang Approach/Departure/Center: 119.200
Palembang Ground/Tower: 118.100

WMKB Radar (Archives)
Penang, Malaysia

Feed Status: UP

Click on your favorite media player to listen:
Listen with WinAmp to WMKB Radar  Listen with iTunes to WMKB Radar  Click here to listen if using Real Player  Click here to listen if using Windows Media Player

Or simply listen in your browser:

Listen right in your browser(in browser, requires Flash)

WMKB 020500Z 28006KT 240V340 7000 FEW020 SCT140 BKN270 33/25 Q1009 NOSIG


Listeners: 6 out of 651 total

Butterworth Radar: 125.800

Lumpur Control/Radar (North) (Archives)
Sepang, Malaysia

Feed Status: UP

Click on your favorite media player to listen:
Listen with WinAmp to Lumpur Control/Radar (North)  Listen with iTunes to Lumpur Control/Radar (North)  Click here to listen if using Real Player  Click here to listen if using Windows Media Player

Or simply listen in your browser:

Listen right in your browser(in browser, requires Flash)

WMKK 020500Z 22007KT 150V290 8000 SCT018 SCT140 BKN280 30/26 Q1009 NOSIG


Listeners: 0 out of 651 total

Lumpur Control/Radar (North): 132.800

Lumpur Control/Radar (South) (Archives)
Sepang, Malaysia

Feed Status: UP

Click on your favorite media player to listen:
Listen with WinAmp to Lumpur Control/Radar (South)  Listen with iTunes to Lumpur Control/Radar (South)  Click here to listen if using Real Player  Click here to listen if using Windows Media Player

Or simply listen in your browser:

Listen right in your browser(in browser, requires Flash)

WMKK 020500Z 22007KT 150V290 8000 SCT018 SCT140 BKN280 30/26 Q1009 NOSIG


Listeners: 1 out of 651 total

Lumpur Control/Radar (South): 123.750

WMKK Lumpur Control/Radar (East) (Archives)
Sepang, Malaysia

Feed Status: UP

Click on your favorite media player to listen:
Listen with WinAmp to WMKK Lumpur Control/Radar (East)  Listen with iTunes to WMKK Lumpur Control/Radar (East)  Click here to listen if using Real Player  Click here to listen if using Windows Media Player

Or simply listen in your browser:

Listen right in your browser(in browser, requires Flash)

WMKK 020500Z 22007KT 150V290 8000 SCT018 SCT140 BKN280 30/26 Q1009 NOSIG


Listeners: 0 out of 651 total

Lumpur Contro/Radar (East): 134.250

WMSA/WMKK Twr/App/Radar
Sepang, Malaysia

Feed Status: DOWN
Offline since: 2016-04-05 00:14:03 UTC
WMSA 020500Z 23003KT 9000 SCT019 SCT140 BKN280 33/25 Q1010

Air Force Ground: 125.200
Air Force Ground: 120.300
Lumpur Approach: 119.450
Lumpur Approach: 132.800
Lumpur Approach: 132.600
Lumpur Approach: 133.400
Lumpur Approach: 123.750
Lumpur Director: 125.100
Lumpur Director: 124.200
Lumpur Tower: 118.500
Lumpur Tower: 118.800
Misc-TBD:
Subang Tower: 118.200

WMKP Tower (Archives)
Penang, Malaysia

Feed Status: UP

Click on your favorite media player to listen:
Listen with WinAmp to WMKP Tower  Listen with iTunes to WMKP Tower  Click here to listen if using Real Player  Click here to listen if using Windows Media Player

Or simply listen in your browser:

Listen right in your browser(in browser, requires Flash)

WMKP 020500Z 22007KT 180V260 7000 FEW020 SCT140 BKN270 32/24 Q1010 NOSIG


Listeners: 0 out of 651 total

Penang Tower: 121.100

WMSA/WMKK Twr/App/Radar
Subang, Malaysia

Feed Status: DOWN
Offline since: 2016-04-05 00:14:03 UTC
WMSA 020500Z 23003KT 9000 SCT019 SCT140 BKN280 33/25 Q1010

Air Force Ground: 125.200
Air Force Ground: 120.300
Lumpur Approach: 119.450
Lumpur Approach: 132.800
Lumpur Approach: 132.600
Lumpur Approach: 133.400
Lumpur Approach: 123.750
Lumpur Director: 125.100
Lumpur Director: 124.200
Lumpur Tower: 118.500
Lumpur Tower: 118.800
Misc-TBD:
Subang Tower: 118.200

WSAP Approach (Archives)
Singapore, Singapore

Feed Status: UP

Click on your favorite media player to listen:
Listen with WinAmp to WSAP Approach  Listen with iTunes to WSAP Approach  Click here to listen if using Real Player  Click here to listen if using Windows Media Player

Or simply listen in your browser:

Listen right in your browser(in browser, requires Flash)

WSAP 020500Z 14004KT 9999 FEW018CB FEW020TCU BKN300 34/26 Q1009


Listeners: 1 out of 651 total

Paya Lebar Approach: 119.900

WSAP Tower (Archives)
Singapore, Singapore

Feed Status: UP

Click on your favorite media player to listen:
Listen with WinAmp to WSAP Tower  Listen with iTunes to WSAP Tower  Click here to listen if using Real Player  Click here to listen if using Windows Media Player

Or simply listen in your browser:

Listen right in your browser(in browser, requires Flash)

WSAP 020500Z 14004KT 9999 FEW018CB FEW020TCU BKN300 34/26 Q1009


Listeners: 2 out of 651 total

Paya Lebar Tower: 118.050

WSSL Tower (Archives)
Singapore, Singapore

Feed Status: UP

Click on your favorite media player to listen:
Listen with WinAmp to WSSL Tower  Listen with iTunes to WSSL Tower  Click here to listen if using Real Player  Click here to listen if using Windows Media Player

Or simply listen in your browser:

Listen right in your browser(in browser, requires Flash)

WSSL 020500Z 07007KT 040V120 9999 VCSH SCT017TCU SCT350 34/24 Q1010 RMK 0430Z Q1010


Listeners: 0 out of 651 total

Seletar Tower: 118.450

WSSS Approach/Departure (Archives)
Singapore, Singapore

Feed Status: UP

Click on your favorite media player to listen:
Listen with WinAmp to WSSS Approach/Departure  Listen with iTunes to WSSS Approach/Departure  Click here to listen if using Real Player  Click here to listen if using Windows Media Player

Or simply listen in your browser:

Listen right in your browser(in browser, requires Flash)

WSSS 020500Z 13006KT 070V180 9999 FEW018TCU FEW020CB BKN300 32/24 Q1010 TEMPO FM0530 TL0615 4000 SHRA


Listeners: 2 out of 651 total

Singapore Approach/Departure: 120.300

WSSS Arrival (Archives)
Singapore, Singapore

Feed Status: UP

Click on your favorite media player to listen:
Listen with WinAmp to WSSS Arrival  Listen with iTunes to WSSS Arrival  Click here to listen if using Real Player  Click here to listen if using Windows Media Player

Or simply listen in your browser:

Listen right in your browser(in browser, requires Flash)

WSSS 020500Z 13006KT 070V180 9999 FEW018TCU FEW020CB BKN300 32/24 Q1010 TEMPO FM0530 TL0615 4000 SHRA


Listeners: 1 out of 651 total

Singapore Arrival: 119.300

WSSS Radar (Archives)
Singapore, Singapore

Feed Status: UP

Click on your favorite media player to listen:
Listen with WinAmp to WSSS Radar  Listen with iTunes to WSSS Radar  Click here to listen if using Real Player  Click here to listen if using Windows Media Player

Or simply listen in your browser:

Listen right in your browser(in browser, requires Flash)

WSSS 020500Z 13006KT 070V180 9999 FEW018TCU FEW020CB BKN300 32/24 Q1010 TEMPO FM0530 TL0615 4000 SHRA


Listeners: 1 out of 651 total

Singapore Control: 134.350
Singapore Radar: 124.050
Singapore Radar (East): 123.700
Singapore Radar (SE): 134.200
Singapore Radar (South): 134.400
Singapore Radar (West): 133.250

WSSS Tower #1 (Archives)
Singapore, Singapore

Feed Status: UP

Click on your favorite media player to listen:
Listen with WinAmp to WSSS Tower #1  Listen with iTunes to WSSS Tower #1  Click here to listen if using Real Player  Click here to listen if using Windows Media Player

Or simply listen in your browser:

Listen right in your browser(in browser, requires Flash)

WSSS 020500Z 13006KT 070V180 9999 FEW018TCU FEW020CB BKN300 32/24 Q1010 TEMPO FM0530 TL0615 4000 SHRA


Listeners: 0 out of 651 total

Singapore Tower: 118.600

WSSS Tower #2 (Archives)
Singapore, Singapore

Feed Status: UP

Click on your favorite media player to listen:
Listen with WinAmp to WSSS Tower #2  Listen with iTunes to WSSS Tower #2  Click here to listen if using Real Player  Click here to listen if using Windows Media Player

Or simply listen in your browser:

Listen right in your browser(in browser, requires Flash)

WSSS 020500Z 13006KT 070V180 9999 FEW018TCU FEW020CB BKN300 32/24 Q1010 TEMPO FM0530 TL0615 4000 SHRA


Listeners: 0 out of 651 total

Singapore Tower (Rwy 02R/20L 0000-1600Z): 118.250

WSSS Tower (both) (Archives)
Singapore, Singapore

Feed Status: UP

Click on your favorite media player to listen:
Listen with WinAmp to WSSS Tower (both)  Listen with iTunes to WSSS Tower (both)  Click here to listen if using Real Player  Click here to listen if using Windows Media Player

Or simply listen in your browser:

Listen right in your browser(in browser, requires Flash)

WSSS 020500Z 13006KT 070V180 9999 FEW018TCU FEW020CB BKN300 32/24 Q1010 TEMPO FM0530 TL0615 4000 SHRA


Listeners: 0 out of 651 total

Singapore Tower: 118.600
Singapore Tower (Rwy 02R/20L 0000-1600Z): 118.250

ZBAA Tower (Archives)
Beijing, China

Feed Status: UP

Click on your favorite media player to listen:
Listen with WinAmp to ZBAA Tower  Listen with iTunes to ZBAA Tower  Click here to listen if using Real Player  Click here to listen if using Windows Media Player

Or simply listen in your browser:

Listen right in your browser(in browser, requires Flash)

ZBAA 020500Z 34007MPS 8000 -RA SCT010 OVC040 12/10 Q1011 NOSIG


Listeners: 1 out of 651 total

Beijing Tower (Rwy 01/19): 118.600

ZLXY Twr/App (Archives)
Xian, China

Feed Status: UP

Click on your favorite media player to listen:
Listen with WinAmp to ZLXY Twr/App  Listen with iTunes to ZLXY Twr/App  Click here to listen if using Real Player  Click here to listen if using Windows Media Player

Or simply listen in your browser:

Listen right in your browser(in browser, requires Flash)

ZLXY 020500Z 24004MPS 170V320 9999 FEW050 20/07 Q1018 NOSIG


Listeners: 1 out of 651 total

Xian Approach 01: 125.100
Xian Approach 02: 119.050
Xian Approach 03: 119.600
Xian Approach 04: 119.900
Xian Tower (North): 124.300
Xian Tower (South): 130.450

ZSSS Approach
Shanghai, China

Feed Status: DOWN
Offline since: 2016-04-21 06:09:09 UTC
ZSSS 020500Z 15005MPS CAVOK 23/20 Q1006 NOSIG

Hongqiao Delivery (evening): 121.750
Shanghai Approach (morning): 126.650